ADDS METAR Data INFO
IDs: Format: Raw Decoded Include TAF

Data at: 0047 UTC 22 Oct 2017

KLAX 212353Z 26012KT 10SM FEW250 21/11 A3003 RMK AO2 SLP167 T02060111 10244 20206 55001
KLAX 212253Z 26012KT 10SM FEW250 22/08 A3003 RMK AO2 SLP166 T02170078
KLAX 212153Z 27011KT 10SM FEW250 22/07 A3003 RMK AO2 SLP167 T02170072
KLAX 212053Z 27012KT 10SM CLR 22/11 A3003 RMK AO2 SLP168 T02170106 58010
KLAX 211953Z 27011KT 10SM CLR 22/13 A3005 RMK AO2 SLP175 T02220133
KLAX 211853Z 15004KT 10SM FEW030 23/11 A3006 RMK AO2 SLP177 T02280106
KLAX 211753Z 00000KT 10SM FEW030 21/12 A3006 RMK AO2 SLP178 T02110122 10211 20161 51013
KLAX 211653Z VRB04KT 10SM FEW250 21/13 A3006 RMK AO2 SLP178 T02060128
KLAX 211553Z VRB04KT 10SM FEW030 FEW200 19/12 A3005 RMK AO2 SLP175 T01890117
KLAX 211453Z VRB04KT 10SM FEW030 FEW200 17/06 A3003 RMK AO2 SLP166 T01720061 53009
KLAX 211353Z 02005KT 10SM FEW016 SCT023 17/06 A3001 RMK AO2 SLP160 T01670061
KLAX 211340Z VRB06KT 10SM SCT019 SCT027 17/06 A3001 RMK AO2 T01720061
KLAX 211253Z 36003KT 10SM SCT019 BKN024 17/07 A3000 RMK AO2 SLP156 T01720067
KLAX 211251Z VRB04KT 10SM SCT019 BKN024 17/07 A3000 RMK AO2
KLAX 211153Z 01007KT 10SM CLR 17/05 A2999 RMK AO2 SLP153 T01670050 10194 20167 52003
KLAX 211053Z 36007KT 10SM CLR 17/03 A2998 RMK AO2 SLP151 T01670033
KLAX 210953Z 35006KT 10SM CLR 17/03 A2999 RMK AO2 SLP153 T01720033
KLAX 210853Z 01011G17KT 10SM CLR 18/02 A2998 RMK AO2 SLP150 T01780022 51014
KLAX 210753Z 36008KT 10SM CLR 19/01 A2997 RMK AO2 SLP146 T01890006 402170172
KLAX 210653Z 35008KT 320V030 10SM CLR 19/01 A2996 RMK AO2 SLP143 T01890011
KLAX 210553Z 02006KT 10SM CLR 19/07 A2994 RMK AO2 SLP135 T01940067 10200 20183 51011
KLAX 210453Z 04004KT 10SM CLR 19/13 A2993 RMK AO2 SLP133 T01890128
KLAX 210353Z 06006KT 10SM CLR 18/13 A2992 RMK AO2 SLP128 T01830133
KLAX 210253Z 08006KT 10SM FEW011 19/14 A2990 RMK AO2 SLP125 T01890139 53008
KLAX 210153Z 26008KT 10SM FEW012 FEW150 19/14 A2988 RMK AO2 SLP116 T01940139
KLAX 210053Z 27012KT 10SM FEW012 FEW060 SCT120 19/14 A2988 RMK AO2 SLP117 T01940139
KLAX 202353Z 25012KT 10SM FEW013 FEW065 SCT150 20/14 A2988 RMK AO2 SLP117 T02000144 10217 20200 56009
KLAX 202253Z 25014KT 10SM FEW014 SCT070 SCT150 21/15 A2989 RMK AO2 SLP121 T02060150
KLAX 202153Z 26015KT 10SM FEW015 SCT075 SCT160 21/14 A2989 RMK AO2 SLP121 T02060144
KLAX 202053Z 26017KT 10SM FEW014 FEW080 SCT160 21/15 A2991 RMK AO2 SLP126 T02060150 58010
KLAX 201953Z 27017KT 9SM FEW027 FEW070 SCT140 SCT200 21/16 A2992 RMK AO2 SLP129 T02110156
KLAX 201853Z 27011KT 9SM FEW025 SCT070 SCT140 BKN200 21/16 A2993 RMK AO2 SLP134 T02110156
KLAX 201753Z 27013KT 9SM FEW020 SCT060 SCT140 21/15 A2994 RMK AO2 SLP137 T02110150 10211 20172 53006
KLAX 201653Z 27009KT 9SM FEW019 SCT060 SCT160 20/14 A2993 RMK AO2 SLP135 T02000139
KLAX 201553Z 26009KT 10SM FEW018 SCT050 SCT160 19/14 A2993 RMK AO2 SLP132 T01890139
KLAX 201453Z 28007KT 8SM FEW017 SCT047 SCT140 18/14 A2992 RMK AO2 SLP131 T01830144 51007
KLAX 201353Z COR 26017KT 8SM FEW014 SCT025 SCT045 18/14 A2992 RMK AO2 SLP129 T01780144
KLAX 201253Z 28010KT 10SM FEW012 FEW025 18/15 A2991 RMK AO2 SLP127 T01780150